Cub Run, Kentucky
Current Conditions -  °F | °C
As of 12:35 PM on Monday 26 Jan 2015 (Local Time) from KGLW Reporting Station
Overcast Overcast  
Wind Chill: 26°   Ceiling: 1500
Heat Index: 31°   Visibility: 10mi
Dew Point: 26°   Wind: 6mph
Humidity: 79%   Direction: 310°NW
Pressure: 29.95"   Gusts: NA
Location:  37.31°N, 86.06°W
Report Text: KGLW 261835Z AUTO 31005KT 10SM OVC015 00/M03 A2995 RMK AO2 T10031035
Loading
Personal Weather Stations






























Interactive Weather Map New forecast layout! Learn more

10-Day Weather Forecast

Advertisements
Track Severe Weather on mobile